Data for 06/09/2013

Time Sea-Level Adjusted Pressure Absolute Pressure Temperature Relative Humidity Dew Point   
(mb) (inHg) (mb) (inHg) (C) (F) (%) (C) (F)
00:05 1018 30.06 848 25.04 12.9 55.1 47 2 35.6
00:10 1018 30.06 848 25.04 13.2 55.7 48 2.3 36.2
00:15 1018 30.06 848 25.04 13 55.4 49 2.6 36.7
00:20 1018 30.06 848 25.04 12.7 54.9 50 2.7 36.8
00:25 1018 30.06 848 25.04 12.5 54.5 53 3.2 37.8
00:30 1018 30.06 848 25.04 12.2 53.9 52 2.7 36.9
00:35 1018 30.06 848 25.04 11.9 53.4 53 2.8 37
00:40 1018 30.06 848 25.04 11.7 53 54 2.8 37
00:45 1018 30.06 848 25.04 11.5 52.7 55 2.7 36.9
00:50 1018 30.06 848 25.04 11.4 52.5 55 2.7 36.9
00:55 1019 30.09 848 25.04 11.2 52.2 56 2.9 37.2
01:00 1019 30.09 848 25.04 11.2 52.1 55 2.5 36.5
01:05 1019 30.09 848 25.04 11.3 52.4 55 2.5 36.6
01:10 1019 30.09 848 25.04 11.4 52.4 53 2.2 36
01:15 1019 30.09 848 25.04 11.6 52.8 52 2.1 35.8
01:20 1019 30.09 848 25.04 11.8 53.2 51 2.1 35.7
01:25 1019 30.09 848 25.04 11.9 53.5 50 1.9 35.5
01:30 1019 30.09 848 25.04 12 53.5 50 2 35.6
01:35 1019 30.09 848 25.04 11.9 53.4 49 1.7 35
01:40 1019 30.09 848 25.04 12 53.5 50 2 35.7
01:45 1019 30.09 848 25.04 11.7 53.1 52 2.2 36
01:50 1019 30.09 848 25.04 11.4 52.6 53 2.4 36.2
01:55 1019 30.09 848 25.04 11.2 52.2 55 2.5 36.4
02:00 1019 30.09 848 25.04 11 51.8 55 2.5 36.5
02:05 1018 30.06 848 25.04 10.9 51.6 56 2.4 36.3
02:10 1018 30.06 848 25.04 10.7 51.2 56 2.4 36.4
02:15 1018 30.06 848 25.04 10.4 50.8 59 2.7 36.9
02:20 1018 30.06 848 25.04 10.1 50.1 58 2.2 36
02:25 1018 30.06 848 25.04 10.4 50.8 55 1.9 35.4
02:30 1018 30.06 848 25.04 10.7 51.3 55 2.1 35.7
02:35 1018 30.06 848 25.04 10.7 51.3 55 2.1 35.8
02:40 1018 30.06 848 25.04 10.6 51.1 56 2.3 36.1
02:45 1018 30.06 848 25.04 10.2 50.4 57 2.2 36
02:50 1018 30.06 848 25.04 10.3 50.5 55 1.8 35.3
02:55 1018 30.06 848 25.04 10.3 50.5 57 2.1 35.8
03:00 1018 30.06 848 25.04 10.4 50.7 55 1.7 35.1
03:05 1018 30.06 848 25.04 10.7 51.3 54 1.8 35.2
03:10 1018 30.06 848 25.04 10.9 51.6 53 1.9 35.3
03:15 1018 30.06 848 25.04 10.9 51.6 54 1.9 35.5
03:20 1018 30.06 848 25.04 10.8 51.4 54 1.9 35.5
03:25 1018 30.06 848 25.04 10.6 51.1 55 2 35.6
03:30 1018 30.06 848 25.04 10.3 50.5 56 2 35.6
03:35 1018 30.06 848 25.04 10.4 50.7 55 1.9 35.3
03:40 1018 30.06 848 25.04 10.1 50.2 56 1.8 35.3
03:45 1018 30.06 848 25.04 10.4 50.7 54 1.5 34.6
03:50 1018 30.06 848 25.04 10.7 51.3 53 1.6 35
03:55 1018 30.06 848 25.04 10.5 50.9 54 1.7 35
04:00 1018 30.06 847 25.01 10.4 50.7 55 1.8 35.3
04:05 1018 30.06 847 25.01 10.1 50.2 57 2 35.5
04:10 1018 30.06 847 25.01 9.6 49.2 61 2.5 36.5
04:15 1018 30.06 847 25.01 9 48.2 62 2 35.7
04:20 1018 30.06 847 25.01 8.8 47.8 63 2.1 35.7
04:25 1018 30.06 847 25.01 8.9 48 61 1.8 35.3
04:30 1018 30.06 847 25.01 8.9 48 61 1.9 35.4
04:35 1018 30.06 847 25.01 9.1 48.3 60 1.7 35
04:40 1018 30.06 847 25.01 9.3 48.7 59 1.7 35.1
04:45 1018 30.06 847 25.01 9.4 49 58 1.7 35.1
04:50 1018 30.06 847 25.01 9.3 48.7 61 2.1 35.7
04:55 1018 30.06 847 25.01 9 48.3 60 1.6 35
05:00 1018 30.06 847 25.01 9.4 49 57 1.4 34.6
05:05 1018 30.06 847 25.01 10 49.9 55 1.5 34.6
05:10 1018 30.06 847 25.01 10.1 50.2 56 1.7 35.1
05:15 1018 30.06 847 25.01 9.8 49.7 58 1.9 35.4
05:20 1018 30.06 847 25.01 9.6 49.3 59 1.9 35.5
05:25 1018 30.06 847 25.01 9.5 49.1 60 2.1 35.7
05:30 1018 30.06 847 25.01 9.5 49 59 1.9 35.4
05:35 1018 30.06 847 25.01 9.6 49.3 58 1.9 35.5
05:40 1018 30.06 847 25.01 9.8 49.7 57 1.9 35.4
05:45 1018 30.06 847 25.01 10.2 50.3 56 1.9 35.4
05:50 1018 30.06 847 25.01 10.6 51 54 1.6 34.8
05:55 1018 30.06 847 25.01 10.9 51.6 53 1.7 35.1
06:00 1018 30.06 847 25.01 11.2 52.1 52 1.8 35.2
06:05 1018 30.06 847 25.01 11.5 52.6 53 2.2 35.9
06:10 1018 30.06 847 25.01 11.7 53 52 2.3 36.1
06:15 1018 30.06 847 25.01 11.8 53.3 52 2.2 36
06:20 1018 30.06 847 25.01 12.1 53.9 51 2.3 36.1
06:25 1018 30.06 847 25.01 12.5 54.5 49 2.1 35.8
06:30 1018 30.06 847 25.01 12.8 55.1 50 2.9 37.1
06:35 1018 30.06 847 25.01 13.1 55.5 50 3 37.4
06:40 1018 30.06 847 25.01 13.5 56.2 48 2.7 36.8
06:45 1018 30.06 847 25.01 13.7 56.6 48 2.9 37.2
06:50 1018 30.06 847 25.01 14.2 57.5 47 3 37.5
06:55 1018 30.06 847 25.01 14.5 58.1 45 2.7 36.8
07:00 1018 30.06 847 25.01 14.7 58.5 44 2.5 36.6
07:05 1018 30.06 847 25.01 15.2 59.3 43 2.6 36.7
07:10 1017 30.03 847 25.01 15.5 59.8 41 2.4 36.3
07:15 1017 30.03 847 25.01 16.1 61 40 2.5 36.6
07:20 1017 30.03 847 25.01 17.1 62.7 37 2.3 36.1
07:25 1017 30.03 847 25.01 17.7 63.9 37 3 37.5
07:30 1017 30.03 847 25.01 18 64.4 37 3.3 37.9
07:35 1017 30.03 847 25.01 18.3 64.9 35 2.6 36.7
07:40 1017 30.03 847 25.01 18.4 65.1 36 3.3 37.9
07:45 1017 30.03 847 25.01 18.3 64.9 34 2.3 36.1
07:50 1017 30.03 846 24.98 18.3 64.9 35 2.7 36.8
07:55 1017 30.03 846 24.98 18.5 65.3 36 3.2 37.8
08:00 1017 30.03 846 24.98 18.7 65.6 35 2.9 37.2
08:05 1017 30.03 846 24.98 19.4 66.9 32 2.4 36.2
08:10 1017 30.03 846 24.98 19.2 66.6 34 3 37.5
08:15 1017 30.03 846 24.98 19.7 67.5 32 2.6 36.7
08:20 1017 30.03 846 24.98 20.5 68.8 26 0.6 33
08:25 1017 30.03 846 24.98 20.3 68.5 26 0.5 32.8
08:30 1017 30.03 846 24.98 20.4 68.8 26 0.4 32.6
08:35 1017 30.03 846 24.98 20.5 68.9 27 0.9 33.7
08:40 1017 30.03 846 24.98 20.7 69.3 27 1.3 34.3
08:45 1017 30.03 846 24.98 21 69.8 26 1 33.8
08:50 1017 30.03 846 24.98 21.6 70.9 24 0.6 33.1
08:55 1017 30.03 846 24.98 21.2 70.1 28 1.9 35.4
09:00 1017 30.03 846 24.98 21.1 70 26 0.9 33.6
09:05 1016 30 846 24.98 21.4 70.4 24 0.2 32.3
09:10 1016 30 846 24.98 22 71.7 23 0.3 32.6
09:15 1016 30 846 24.98 22 71.7 23 0.4 32.6
09:20 1016 30 845 24.95 22.2 71.9 23 0.1 32.1
09:25 1016 30 845 24.95 22.9 73.3 22 0.1 32.2
09:30 1016 30 845 24.95 22.3 72.1 22 -0 31.9
09:35 1016 30 845 24.95 22.2 72 24 0.6 33.1
09:40 1016 30 845 24.95 22.4 72.3 23 0.3 32.5
09:45 1016 30 845 24.95 23.2 73.8 22 0.3 32.5
09:50 1016 30 845 24.95 23.2 73.7 22 0.7 33.3
09:55 1016 30 845 24.95 22.7 72.9 22 0.3 32.5
10:00 1016 30 845 24.95 23.4 74 22 0.8 33.5
10:05 1016 30 845 24.95 22.6 72.6 24 1.1 34
10:10 1015 29.97 845 24.95 22.7 72.8 26 2.3 36.1
10:15 1015 29.97 845 24.95 23 73.4 25 1.9 35.5
10:20 1015 29.97 845 24.95 23.7 74.6 24 2.1 35.9
10:25 1015 29.97 845 24.95 24 75.2 22 1.5 34.7
10:30 1015 29.97 844 24.92 23.6 74.4 23 1.6 34.9
10:35 1015 29.97 844 24.92 23.9 75 24 2.4 36.2
10:40 1015 29.97 844 24.92 23.8 74.8 23 1.7 35
10:45 1015 29.97 844 24.92 23.5 74.3 25 2.6 36.8
10:50 1015 29.97 844 24.92 24 75.3 21 0.6 33.1
10:55 1015 29.97 844 24.92 24.7 76.4 24 2.9 37.3
11:00 1015 29.97 844 24.92 24.1 75.4 24 2.3 36.1
11:05 1015 29.97 844 24.92 24.6 76.2 21 1.4 34.5
11:10 1015 29.97 844 24.92 23.9 74.9 23 1.6 35
11:15 1015 29.97 844 24.92 24.2 75.6 22 1.4 34.6
11:20 1015 29.97 844 24.92 25.5 77.9 20 1 33.8
11:25 1014 29.94 844 24.92 26.1 79 20 1.6 35
11:30 1014 29.94 844 24.92 25.1 77.1 21 1.3 34.4
11:35 1014 29.94 844 24.92 25 77 20 0.4 32.7
11:40 1014 29.94 844 24.92 25.7 78.3 19 0.8 33.4
11:45 1014 29.94 843 24.89 25.3 77.5 21 1.9 35.4
11:50 1014 29.94 843 24.89 24.9 76.8 22 1.9 35.5
11:55 1014 29.94 843 24.89 25.5 78 20 1.5 34.7
12:00 1014 29.94 843 24.89 25.7 78.2 19 0.6 33.1
12:05 1014 29.94 843 24.89 26.6 79.9 20 2.2 36
12:10 1014 29.94 843 24.89 26.8 80.3 21 2.6 36.8
12:15 1014 29.94 843 24.89 26.9 80.4 20 2.1 35.8
12:20 1014 29.94 843 24.89 27.2 80.9 20 2.2 36
12:25 1014 29.94 843 24.89 27.5 81.6 20 2.6 36.6
12:30 1014 29.94 843 24.89 27.6 81.8 19 2.3 36.2
12:35 1013 29.91 843 24.89 27.6 81.7 19 2.2 36
12:40 1013 29.91 843 24.89 27.6 81.7 20 3.3 37.9
12:45 1013 29.91 843 24.89 27.8 82.1 14 -1.7 29
12:50 1013 29.91 842 24.86 28.1 82.6 14 -1.8 28.7
12:55 1013 29.91 842 24.86 28.1 82.6 15 -1.1 30
13:00 1013 29.91 842 24.86 28.5 83.2 15 0.1 32.1
13:05 1013 29.91 842 24.86 27.8 82.1 19 2.3 36.2
13:10 1013 29.91 842 24.86 27.5 81.5 17 0.6 33.1
13:15 1013 29.91 842 24.86 27.9 82.1 17 1.1 33.9
13:20 1013 29.91 842 24.86 28 82.4 17 0.7 33.3
13:25 1013 29.91 842 24.86 28.2 82.8 18 1.8 35.2
13:30 1013 29.91 842 24.86 28.2 82.7 17 1 33.8
13:35 1013 29.91 842 24.86 28.4 83.2 18 2.4 36.3
13:40 1013 29.91 842 24.86 28.7 83.7 18 2.3 36.1
13:45 1013 29.91 842 24.86 28.7 83.7 17 1.5 34.6
13:50 1013 29.91 842 24.86 28.8 83.9 16 1.1 34
13:55 1013 29.91 842 24.86 28.5 83.2 18 2.2 36
14:00 1013 29.91 842 24.86 28.5 83.3 18 1.9 35.4
14:05 1012 29.88 842 24.86 28.9 84 17 1.8 35.2
14:10 1012 29.88 842 24.86 28.6 83.4 19 2.8 37.1
14:15 1012 29.88 842 24.86 28.2 82.7 19 2.3 36.2
14:20 1012 29.88 841 24.83 28.8 83.9 14 -0.9 30.4
14:25 1012 29.88 841 24.83 28.9 84.1 14 -1.2 29.8
14:30 1012 29.88 841 24.83 28.9 84 13 -1.9 28.6
14:35 1012 29.88 841 24.83 28.9 83.9 14 -0.5 31.1
14:40 1012 29.88 841 24.83 29.2 84.6 13 -1.4 29.5
14:45 1012 29.88 841 24.83 28.8 83.8 13 -1.7 29
14:50 1012 29.88 841 24.83 28.5 83.4 14 -1.3 29.7
14:55 1012 29.88 841 24.83 28.7 83.6 14 -1.3 29.7
15:00 1012 29.88 841 24.83 28.7 83.7 14 -0.9 30.3
15:05 1012 29.88 841 24.83 29.2 84.5 14 -1.2 29.9
15:10 1012 29.88 841 24.83 29.1 84.3 15 -0.1 31.9
15:15 1012 29.88 841 24.83 29.2 84.6 14 -0.6 30.9
15:20 1012 29.88 841 24.83 29.2 84.5 14 -0.7 30.7
15:25 1012 29.88 841 24.83 29.2 84.5 14 -0.4 31.3
15:30 1012 29.88 841 24.83 29.4 84.9 14 -0.9 30.5
15:35 1012 29.88 841 24.83 29.1 84.4 14 -0.3 31.5
15:40 1011 29.85 841 24.83 29.2 84.5 14 -0.4 31.3
15:45 1011 29.85 841 24.83 29.6 85.3 14 -0.3 31.5
15:50 1011 29.85 841 24.83 29.7 85.5 14 0.1 32.2
15:55 1011 29.85 841 24.83 29.7 85.5 15 0.3 32.6
16:00 1011 29.85 840 24.81 29.8 85.6 15 0.3 32.5
16:05 1011 29.85 840 24.81 29.7 85.5 14 -0.3 31.4
16:10 1011 29.85 840 24.81 29.8 85.7 14 0 32.1
16:15 1011 29.85 840 24.81 29.8 85.6 15 0.6 33.1
16:20 1011 29.85 840 24.81 29.8 85.6 15 0.5 32.9
16:25 1011 29.85 840 24.81 29.8 85.7 14 0.3 32.5
16:30 1011 29.85 840 24.81 29.9 85.7 15 0.5 32.9
16:35 1011 29.85 840 24.81 29.7 85.4 14 0.1 32.3
16:40 1011 29.85 840 24.81 29.2 84.6 15 0.3 32.6
16:45 1011 29.85 840 24.81 28.9 84 17 2.1 35.7
16:50 1011 29.85 840 24.81 28.6 83.6 17 1.4 34.5
16:55 1011 29.85 840 24.81 28.5 83.2 17 1.3 34.3
17:00 1011 29.85 840 24.81 28.5 83.3 16 0.8 33.4
17:05 1011 29.85 840 24.81 28.7 83.7 17 1.2 34.2
17:10 1011 29.85 840 24.81 28.9 84 16 0.7 33.2
17:15 1011 29.85 840 24.81 28.6 83.4 17 1.6 34.9
17:20 1011 29.85 840 24.81 28.2 82.8 19 2.5 36.5
17:25 1011 29.85 840 24.81 27.9 82.2 19 2.4 36.4
17:30 1011 29.85 840 24.81 27.8 82 20 2.8 37
17:35 1011 29.85 840 24.81 27.7 81.9 21 3.7 38.7
17:40 1011 29.85 840 24.81 27.9 82.1 21 3.7 38.7
17:45 1011 29.85 840 24.81 27.9 82.2 21 4.1 39.3
17:50 1011 29.85 840 24.81 27.6 81.8 22 4 39.2
17:55 1011 29.85 840 24.81 27.3 81.1 23 4.9 40.8
18:00 1011 29.85 840 24.81 26.6 79.8 23 4.2 39.6
18:05 1011 29.85 840 24.81 26.7 80.1 21 3.1 37.6
18:10 1011 29.85 840 24.81 27.1 80.7 21 3.4 38.2
18:15 1011 29.85 840 24.81 27.2 81 20 2.7 36.9
18:20 1011 29.85 840 24.81 27.2 81 21 3 37.4
18:25 1011 29.85 840 24.81 27.2 80.9 21 3.2 37.8
18:30 1011 29.85 840 24.81 27.1 80.7 21 3.3 37.9
18:35 1011 29.85 840 24.81 26.9 80.3 22 3.7 38.6
18:40 1011 29.85 840 24.81 26.7 80.1 20 2.4 36.4
18:45 1011 29.85 840 24.81 26.6 79.8 19 1.4 34.5
18:50 1011 29.85 840 24.81 26.4 79.5 19 1.4 34.5
18:55 1011 29.85 840 24.81 26.3 79.4 18 0 32.1
19:00 1011 29.85 840 24.81 26.2 79.1 18 0.1 32.3
19:05 1011 29.85 840 24.81 26 78.8 18 -0.3 31.5
19:10 1011 29.85 840 24.81 25.9 78.6 19 0.7 33.3
19:15 1011 29.85 841 24.83 25.7 78.3 21 1.8 35.3
19:20 1011 29.85 841 24.83 25.4 77.6 20 1.1 34
19:25 1011 29.85 841 24.83 25 77 19 0.3 32.5
19:30 1012 29.88 841 24.83 24.6 76.2 19 -0.3 31.4
19:35 1012 29.88 841 24.83 24.2 75.6 19 -0.9 30.3
19:40 1012 29.88 841 24.83 23.9 75 18 -1.5 29.4
19:45 1012 29.88 841 24.83 23.7 74.6 18 -1.7 29
19:50 1012 29.88 841 24.83 23.5 74.3 18 -2.3 27.9
19:55 1012 29.88 841 24.83 23.3 74 18 -2.1 28.2
20:00 1012 29.88 841 24.83 23.2 73.7 17 -2.7 27.2
20:05 1012 29.88 841 24.83 23 73.4 17 -3 26.6
20:10 1012 29.88 841 24.83 22.9 73.2 18 -2.5 27.5
20:15 1012 29.88 842 24.86 22.7 72.8 18 -2.9 26.7
20:20 1012 29.88 842 24.86 22.5 72.4 18 -2.9 26.8
20:25 1013 29.91 842 24.86 22.3 72.1 18 -3 26.5
20:30 1013 29.91 842 24.86 22.1 71.7 18 -2.9 26.8
20:35 1013 29.91 842 24.86 21.9 71.4 18 -3.2 26.2
20:40 1013 29.91 842 24.86 21.7 71.1 18 -3.3 26.1
20:45 1013 29.91 842 24.86 21.5 70.7 20 -2.3 27.9
20:50 1013 29.91 842 24.86 21.3 70.4 20 -2.5 27.6
20:55 1013 29.91 842 24.86 21 69.9 19 -3.1 26.5
21:00 1013 29.91 842 24.86 20.8 69.5 20 -2.8 26.9
21:05 1013 29.91 842 24.86 20.6 69.1 20 -2.9 26.8
21:10 1013 29.91 842 24.86 20.4 68.8 20 -3.3 26
21:15 1013 29.91 843 24.89 20.3 68.5 20 -3.4 25.9
21:20 1013 29.91 843 24.89 20.2 68.3 20 -3.1 26.4
21:25 1014 29.94 843 24.89 19.9 67.9 26 0.2 32.4
21:30 1014 29.94 843 24.89 18.5 65.3 29 0 32.1
21:35 1014 29.94 843 24.89 18.1 64.5 27 -1 30.2
21:40 1014 29.94 843 24.89 18.2 64.7 25 -2.2 28
21:45 1014 29.94 843 24.89 18.4 65.1 27 -0.6 30.8
21:50 1014 29.94 843 24.89 17.9 64.3 25 -2.2 28.1
21:55 1014 29.94 843 24.89 18 64.4 27 -1 30.2
22:00 1014 29.94 843 24.89 17.9 64.3 28 -0.6 31
22:05 1014 29.94 843 24.89 17.6 63.6 28 -1 30.1
22:10 1014 29.94 843 24.89 17.1 62.8 29 -0.7 30.7
22:15 1014 29.94 843 24.89 16.8 62.3 31 -0.4 31.3
22:20 1014 29.94 843 24.89 16.7 62 32 0.1 32.2
22:25 1014 29.94 843 24.89 16.6 61.8 36 1.6 34.9
22:30 1014 29.94 843 24.89 16.1 60.9 35 0.6 33.1
22:35 1014 29.94 843 24.89 15.6 60.1 36 0.8 33.5
22:40 1014 29.94 843 24.89 15.5 59.8 36 0.6 33.2
22:45 1014 29.94 843 24.89 15.4 59.8 38 1.3 34.3
22:50 1014 29.94 843 24.89 15.5 59.9 38 1.3 34.4
22:55 1014 29.94 844 24.92 15.2 59.4 38 1.3 34.3
23:00 1014 29.94 844 24.92 14.7 58.4 42 2 35.7
23:05 1015 29.97 844 24.92 14.1 57.3 42 1.3 34.3
23:10 1015 29.97 844 24.92 13.9 57.1 45 2.3 36.1
23:15 1015 29.97 844 24.92 13.1 55.7 43 1.1 33.9
23:20 1015 29.97 844 24.92 13.3 55.9 41 0.4 32.7
23:25 1015 29.97 844 24.92 13.8 56.9 37 -0.6 30.9
23:30 1015 29.97 844 24.92 13.9 57.1 37 -0.6 31
23:35 1014 29.94 844 24.92 14.2 57.5 37 -0.1 31.7
23:40 1015 29.97 844 24.92 14 57.2 38 -0 32
23:45 1015 29.97 844 24.92 13.9 57.1 37 -0.5 31.1
23:50 1015 29.97 844 24.92 14.1 57.3 38 -0 32
23:55 1015 29.97 844 24.92 14.1 57.4 33 -1.9 28.6
24:00 1015 29.97 844 24.92 14.6 58.4 36 -0.3 31.4